sensor_id;sensor_type;location;lat;lon;timestamp;P1;durP1;ratioP1;P2;durP2;ratioP2
15381;SDS011;7789;51.364;12.358;2023-02-28T00:00:07;3.43;;;1.80;;
15381;SDS011;7789;51.364;12.358;2023-02-28T00:05:12;2.73;;;1.70;;
15381;SDS011;7789;51.364;12.358;2023-02-28T00:10:18;2.77;;;1.90;;
15381;SDS011;7789;51.364;12.358;2023-02-28T00:15:23;4.17;;;1.80;;
15381;SDS011;7789;51.364;12.358;2023-02-28T00:20:27;3.17;;;2.00;;
15381;SDS011;7789;51.364;12.358;2023-02-28T00:25:31;3.53;;;2.33;;
15381;SDS011;7789;51.364;12.358;2023-02-28T00:30:35;2.90;;;2.17;;
15381;SDS011;7789;51.364;12.358;2023-02-28T00:35:39;3.13;;;2.10;;
15381;SDS011;7789;51.364;12.358;2023-02-28T00:40:42;6.27;;;2.10;;
15381;SDS011;7789;51.364;12.358;2023-02-28T00:45:47;3.77;;;1.93;;
15381;SDS011;7789;51.364;12.358;2023-02-28T00:50:50;4.70;;;2.20;;
15381;SDS011;7789;51.364;12.358;2023-02-28T00:55:53;3.47;;;2.07;;
15381;SDS011;7789;51.364;12.358;2023-02-28T01:00:58;2.97;;;2.07;;
15381;SDS011;7789;51.364;12.358;2023-02-28T01:06:02;2.23;;;1.70;;
15381;SDS011;7789;51.364;12.358;2023-02-28T01:11:08;6.27;;;1.87;;
15381;SDS011;7789;51.364;12.358;2023-02-28T01:16:14;3.53;;;2.03;;
15381;SDS011;7789;51.364;12.358;2023-02-28T01:21:18;3.53;;;2.10;;
15381;SDS011;7789;51.364;12.358;2023-02-28T01:26:23;2.80;;;1.93;;
15381;SDS011;7789;51.364;12.358;2023-02-28T01:31:28;3.57;;;2.10;;
15381;SDS011;7789;51.364;12.358;2023-02-28T01:36:32;3.77;;;1.93;;
15381;SDS011;7789;51.364;12.358;2023-02-28T01:41:35;4.00;;;2.27;;
15381;SDS011;7789;51.364;12.358;2023-02-28T01:46:40;5.80;;;2.40;;
15381;SDS011;7789;51.364;12.358;2023-02-28T01:51:45;3.00;;;2.10;;
15381;SDS011;7789;51.364;12.358;2023-02-28T01:56:54;3.13;;;1.93;;
15381;SDS011;7789;51.364;12.358;2023-02-28T02:02:02;4.00;;;2.17;;
15381;SDS011;7789;51.364;12.358;2023-02-28T02:07:05;6.10;;;2.40;;
15381;SDS011;7789;51.364;12.358;2023-02-28T02:12:12;3.17;;;2.23;;
15381;SDS011;7789;51.364;12.358;2023-02-28T02:17:35;3.57;;;2.03;;
15381;SDS011;7789;51.364;12.358;2023-02-28T02:34:04;3.47;;;2.20;;
15381;SDS011;7789;51.364;12.358;2023-02-28T02:39:28;5.57;;;2.27;;
15381;SDS011;7789;51.364;12.358;2023-02-28T02:44:35;3.50;;;1.80;;
15381;SDS011;7789;51.364;12.358;2023-02-28T02:49:47;2.37;;;2.00;;
15381;SDS011;7789;51.364;12.358;2023-02-28T02:54:54;3.63;;;2.17;;
15381;SDS011;7789;51.364;12.358;2023-02-28T03:00:00;4.40;;;1.90;;
15381;SDS011;7789;51.364;12.358;2023-02-28T03:05:14;3.53;;;2.07;;
15381;SDS011;7789;51.364;12.358;2023-02-28T03:10:30;3.30;;;2.00;;
15381;SDS011;7789;51.364;12.358;2023-02-28T03:15:37;4.03;;;2.23;;
15381;SDS011;7789;51.364;12.358;2023-02-28T03:20:54;5.67;;;2.13;;
15381;SDS011;7789;51.364;12.358;2023-02-28T03:26:07;6.03;;;2.23;;
15381;SDS011;7789;51.364;12.358;2023-02-28T03:31:20;2.93;;;2.00;;
15381;SDS011;7789;51.364;12.358;2023-02-28T03:36:32;4.00;;;2.20;;
15381;SDS011;7789;51.364;12.358;2023-02-28T03:41:45;2.97;;;2.10;;
15381;SDS011;7789;51.364;12.358;2023-02-28T03:46:55;4.57;;;2.43;;
15381;SDS011;7789;51.364;12.358;2023-02-28T03:52:05;4.17;;;2.43;;
15381;SDS011;7789;51.364;12.358;2023-02-28T03:57:12;3.10;;;2.13;;
15381;SDS011;7789;51.364;12.358;2023-02-28T04:02:23;4.27;;;2.40;;
15381;SDS011;7789;51.364;12.358;2023-02-28T04:07:30;4.77;;;2.47;;
15381;SDS011;7789;51.364;12.358;2023-02-28T04:12:33;4.90;;;2.50;;
15381;SDS011;7789;51.364;12.358;2023-02-28T04:17:36;3.60;;;2.17;;
15381;SDS011;7789;51.364;12.358;2023-02-28T04:22:41;3.53;;;2.50;;
15381;SDS011;7789;51.364;12.358;2023-02-28T04:27:45;4.20;;;2.30;;
15381;SDS011;7789;51.364;12.358;2023-02-28T04:32:48;3.97;;;2.37;;
15381;SDS011;7789;51.364;12.358;2023-02-28T04:37:52;4.70;;;2.60;;
15381;SDS011;7789;51.364;12.358;2023-02-28T04:42:56;3.00;;;2.03;;
15381;SDS011;7789;51.364;12.358;2023-02-28T04:47:59;4.30;;;2.50;;
15381;SDS011;7789;51.364;12.358;2023-02-28T04:53:04;3.43;;;2.53;;
15381;SDS011;7789;51.364;12.358;2023-02-28T04:58:07;3.73;;;2.30;;
15381;SDS011;7789;51.364;12.358;2023-02-28T05:03:10;3.13;;;2.10;;
15381;SDS011;7789;51.364;12.358;2023-02-28T05:08:15;4.97;;;2.87;;
15381;SDS011;7789;51.364;12.358;2023-02-28T05:13:18;4.20;;;2.37;;
15381;SDS011;7789;51.364;12.358;2023-02-28T05:18:23;7.87;;;2.70;;
15381;SDS011;7789;51.364;12.358;2023-02-28T05:23:31;7.60;;;2.87;;
15381;SDS011;7789;51.364;12.358;2023-02-28T05:28:35;5.33;;;3.07;;
15381;SDS011;7789;51.364;12.358;2023-02-28T05:33:39;3.40;;;2.10;;
15381;SDS011;7789;51.364;12.358;2023-02-28T05:38:44;4.13;;;2.67;;
15381;SDS011;7789;51.364;12.358;2023-02-28T05:43:48;4.67;;;3.03;;
15381;SDS011;7789;51.364;12.358;2023-02-28T05:48:52;5.63;;;2.70;;
15381;SDS011;7789;51.364;12.358;2023-02-28T05:54:02;5.53;;;3.80;;
15381;SDS011;7789;51.364;12.358;2023-02-28T05:59:05;4.70;;;3.13;;
15381;SDS011;7789;51.364;12.358;2023-02-28T06:04:09;4.80;;;2.80;;
15381;SDS011;7789;51.364;12.358;2023-02-28T06:09:32;8.43;;;3.07;;
15381;SDS011;7789;51.364;12.358;2023-02-28T06:14:40;4.73;;;2.60;;
15381;SDS011;7789;51.364;12.358;2023-02-28T06:19:57;7.47;;;4.17;;
15381;SDS011;7789;51.364;12.358;2023-02-28T06:25:02;6.17;;;4.10;;
15381;SDS011;7789;51.364;12.358;2023-02-28T06:30:06;5.43;;;2.40;;
15381;SDS011;7789;51.364;12.358;2023-02-28T06:35:13;5.80;;;3.00;;
15381;SDS011;7789;51.364;12.358;2023-02-28T06:40:18;3.80;;;2.97;;
15381;SDS011;7789;51.364;12.358;2023-02-28T06:45:21;5.33;;;3.20;;
15381;SDS011;7789;51.364;12.358;2023-02-28T06:50:28;4.60;;;3.23;;
15381;SDS011;7789;51.364;12.358;2023-02-28T06:55:33;5.47;;;3.47;;
15381;SDS011;7789;51.364;12.358;2023-02-28T07:00:37;6.33;;;3.60;;
15381;SDS011;7789;51.364;12.358;2023-02-28T07:05:43;6.70;;;3.20;;
15381;SDS011;7789;51.364;12.358;2023-02-28T07:10:52;3.80;;;2.83;;
15381;SDS011;7789;51.364;12.358;2023-02-28T07:15:59;7.23;;;3.40;;
15381;SDS011;7789;51.364;12.358;2023-02-28T07:21:04;4.93;;;3.23;;
15381;SDS011;7789;51.364;12.358;2023-02-28T07:26:12;4.03;;;3.00;;
15381;SDS011;7789;51.364;12.358;2023-02-28T07:31:19;4.07;;;2.80;;
15381;SDS011;7789;51.364;12.358;2023-02-28T07:36:23;5.47;;;3.27;;
15381;SDS011;7789;51.364;12.358;2023-02-28T07:41:27;6.57;;;3.30;;
15381;SDS011;7789;51.364;12.358;2023-02-28T07:46:32;6.47;;;2.83;;
15381;SDS011;7789;51.364;12.358;2023-02-28T07:51:39;7.00;;;3.20;;
15381;SDS011;7789;51.364;12.358;2023-02-28T07:56:44;6.33;;;3.20;;
15381;SDS011;7789;51.364;12.358;2023-02-28T08:01:47;6.17;;;3.00;;
15381;SDS011;7789;51.364;12.358;2023-02-28T08:06:51;5.60;;;3.10;;
15381;SDS011;7789;51.364;12.358;2023-02-28T08:11:56;5.33;;;2.77;;
15381;SDS011;7789;51.364;12.358;2023-02-28T08:17:00;5.57;;;2.60;;
15381;SDS011;7789;51.364;12.358;2023-02-28T08:22:04;5.60;;;2.50;;
15381;SDS011;7789;51.364;12.358;2023-02-28T08:27:08;7.27;;;2.80;;
15381;SDS011;7789;51.364;12.358;2023-02-28T08:32:16;5.40;;;3.07;;
15381;SDS011;7789;51.364;12.358;2023-02-28T08:37:31;7.30;;;2.90;;
15381;SDS011;7789;51.364;12.358;2023-02-28T08:42:35;4.77;;;2.37;;
15381;SDS011;7789;51.364;12.358;2023-02-28T08:47:41;4.80;;;2.40;;
15381;SDS011;7789;51.364;12.358;2023-02-28T08:52:53;3.77;;;2.30;;
15381;SDS011;7789;51.364;12.358;2023-02-28T08:57:58;2.83;;;2.10;;
15381;SDS011;7789;51.364;12.358;2023-02-28T09:03:02;4.93;;;2.37;;
15381;SDS011;7789;51.364;12.358;2023-02-28T09:08:05;7.17;;;2.40;;
15381;SDS011;7789;51.364;12.358;2023-02-28T09:13:10;5.83;;;2.53;;
15381;SDS011;7789;51.364;12.358;2023-02-28T09:18:13;4.90;;;2.57;;
15381;SDS011;7789;51.364;12.358;2023-02-28T09:23:18;4.37;;;2.50;;
15381;SDS011;7789;51.364;12.358;2023-02-28T09:28:23;15.40;;;3.97;;
15381;SDS011;7789;51.364;12.358;2023-02-28T09:33:26;6.70;;;2.30;;
15381;SDS011;7789;51.364;12.358;2023-02-28T09:38:32;4.87;;;1.87;;
15381;SDS011;7789;51.364;12.358;2023-02-28T09:43:37;3.83;;;2.40;;
15381;SDS011;7789;51.364;12.358;2023-02-28T09:48:47;3.03;;;2.13;;
15381;SDS011;7789;51.364;12.358;2023-02-28T09:53:53;3.27;;;1.87;;
15381;SDS011;7789;51.364;12.358;2023-02-28T09:59:04;4.17;;;2.30;;
15381;SDS011;7789;51.364;12.358;2023-02-28T10:04:14;3.47;;;2.27;;
15381;SDS011;7789;51.364;12.358;2023-02-28T10:09:26;3.93;;;2.33;;
15381;SDS011;7789;51.364;12.358;2023-02-28T10:14:35;4.87;;;2.50;;
15381;SDS011;7789;51.364;12.358;2023-02-28T10:19:42;2.97;;;2.20;;
15381;SDS011;7789;51.364;12.358;2023-02-28T10:24:58;3.83;;;2.00;;
15381;SDS011;7789;51.364;12.358;2023-02-28T10:30:10;4.20;;;2.57;;
15381;SDS011;7789;51.364;12.358;2023-02-28T10:35:15;4.83;;;2.50;;
15381;SDS011;7789;51.364;12.358;2023-02-28T10:40:28;3.90;;;2.20;;
15381;SDS011;7789;51.364;12.358;2023-02-28T10:45:35;5.00;;;2.47;;
15381;SDS011;7789;51.364;12.358;2023-02-28T10:50:42;4.27;;;2.60;;
15381;SDS011;7789;51.364;12.358;2023-02-28T10:55:47;3.90;;;2.53;;
15381;SDS011;7789;51.364;12.358;2023-02-28T11:01:01;3.60;;;2.40;;
15381;SDS011;7789;51.364;12.358;2023-02-28T11:06:08;5.07;;;2.80;;
15381;SDS011;7789;51.364;12.358;2023-02-28T11:11:18;6.80;;;3.07;;
15381;SDS011;7789;51.364;12.358;2023-02-28T11:16:33;3.90;;;2.37;;
15381;SDS011;7789;51.364;12.358;2023-02-28T11:21:39;6.67;;;3.27;;
15381;SDS011;7789;51.364;12.358;2023-02-28T11:26:48;4.43;;;3.03;;
15381;SDS011;7789;51.364;12.358;2023-02-28T11:32:02;4.27;;;2.60;;
15381;SDS011;7789;51.364;12.358;2023-02-28T11:37:15;4.93;;;2.97;;
15381;SDS011;7789;51.364;12.358;2023-02-28T11:42:30;3.90;;;2.67;;
15381;SDS011;7789;51.364;12.358;2023-02-28T11:47:45;5.53;;;3.13;;
15381;SDS011;7789;51.364;12.358;2023-02-28T11:52:53;5.13;;;2.70;;
15381;SDS011;7789;51.364;12.358;2023-02-28T12:03:33;9.13;;;3.30;;
15381;SDS011;7789;51.364;12.358;2023-02-28T12:08:52;5.97;;;3.60;;
15381;SDS011;7789;51.364;12.358;2023-02-28T12:14:11;6.80;;;3.50;;
15381;SDS011;7789;51.364;12.358;2023-02-28T12:19:30;5.97;;;3.33;;
15381;SDS011;7789;51.364;12.358;2023-02-28T12:24:55;4.70;;;3.27;;
15381;SDS011;7789;51.364;12.358;2023-02-28T12:30:17;7.00;;;3.60;;
15381;SDS011;7789;51.364;12.358;2023-02-28T12:35:27;5.47;;;3.80;;
15381;SDS011;7789;51.364;12.358;2023-02-28T12:40:41;5.73;;;3.60;;
15381;SDS011;7789;51.364;12.358;2023-02-28T12:45:50;5.87;;;4.20;;
15381;SDS011;7789;51.364;12.358;2023-02-28T12:50:57;6.10;;;4.00;;
15381;SDS011;7789;51.364;12.358;2023-02-28T12:56:07;8.77;;;3.70;;
15381;SDS011;7789;51.364;12.358;2023-02-28T13:07:04;6.93;;;3.77;;
15381;SDS011;7789;51.364;12.358;2023-02-28T13:12:15;4.40;;;3.53;;
15381;SDS011;7789;51.364;12.358;2023-02-28T13:17:20;8.50;;;3.90;;
15381;SDS011;7789;51.364;12.358;2023-02-28T13:22:38;7.17;;;4.30;;
15381;SDS011;7789;51.364;12.358;2023-02-28T13:27:44;7.37;;;4.27;;
15381;SDS011;7789;51.364;12.358;2023-02-28T13:32:51;9.60;;;4.30;;
15381;SDS011;7789;51.364;12.358;2023-02-28T13:38:34;6.60;;;3.80;;
15381;SDS011;7789;51.364;12.358;2023-02-28T13:49:18;4.90;;;3.87;;
15381;SDS011;7789;51.364;12.358;2023-02-28T13:54:28;6.23;;;3.37;;
15381;SDS011;7789;51.364;12.358;2023-02-28T13:59:43;7.77;;;4.30;;
15381;SDS011;7789;51.364;12.358;2023-02-28T14:05:02;5.87;;;3.97;;
15381;SDS011;7789;51.364;12.358;2023-02-28T14:10:16;6.50;;;3.90;;
15381;SDS011;7789;51.364;12.358;2023-02-28T14:20:59;5.80;;;3.50;;
15381;SDS011;7789;51.364;12.358;2023-02-28T14:26:16;5.53;;;3.70;;
15381;SDS011;7789;51.364;12.358;2023-02-28T14:31:33;6.73;;;4.47;;
15381;SDS011;7789;51.364;12.358;2023-02-28T14:36:43;6.37;;;4.20;;
15381;SDS011;7789;51.364;12.358;2023-02-28T14:41:49;7.13;;;4.33;;
15381;SDS011;7789;51.364;12.358;2023-02-28T14:46:53;6.50;;;4.60;;
15381;SDS011;7789;51.364;12.358;2023-02-28T14:52:02;6.07;;;4.43;;
15381;SDS011;7789;51.364;12.358;2023-02-28T14:57:21;4.83;;;3.70;;
15381;SDS011;7789;51.364;12.358;2023-02-28T15:02:29;5.73;;;3.90;;
15381;SDS011;7789;51.364;12.358;2023-02-28T15:07:36;6.33;;;4.03;;
15381;SDS011;7789;51.364;12.358;2023-02-28T15:12:50;5.70;;;4.20;;
15381;SDS011;7789;51.364;12.358;2023-02-28T15:17:57;6.77;;;4.30;;
15381;SDS011;7789;51.364;12.358;2023-02-28T15:23:03;6.90;;;4.53;;
15381;SDS011;7789;51.364;12.358;2023-02-28T15:28:10;8.07;;;4.50;;
15381;SDS011;7789;51.364;12.358;2023-02-28T15:33:22;7.50;;;4.47;;
15381;SDS011;7789;51.364;12.358;2023-02-28T15:38:26;7.37;;;4.47;;
15381;SDS011;7789;51.364;12.358;2023-02-28T15:43:32;7.67;;;4.37;;
15381;SDS011;7789;51.364;12.358;2023-02-28T15:48:42;5.80;;;4.40;;
15381;SDS011;7789;51.364;12.358;2023-02-28T15:53:49;6.97;;;4.20;;
15381;SDS011;7789;51.364;12.358;2023-02-28T15:58:59;7.40;;;4.40;;
15381;SDS011;7789;51.364;12.358;2023-02-28T16:04:13;7.27;;;4.33;;
15381;SDS011;7789;51.364;12.358;2023-02-28T16:09:18;5.87;;;4.50;;
15381;SDS011;7789;51.364;12.358;2023-02-28T16:14:24;6.90;;;4.83;;
15381;SDS011;7789;51.364;12.358;2023-02-28T16:19:29;6.80;;;4.37;;
15381;SDS011;7789;51.364;12.358;2023-02-28T16:24:35;6.03;;;4.37;;
15381;SDS011;7789;51.364;12.358;2023-02-28T16:29:39;7.83;;;4.17;;
15381;SDS011;7789;51.364;12.358;2023-02-28T16:34:43;6.43;;;4.40;;
15381;SDS011;7789;51.364;12.358;2023-02-28T16:39:51;6.80;;;4.43;;
15381;SDS011;7789;51.364;12.358;2023-02-28T16:44:55;9.83;;;5.43;;
15381;SDS011;7789;51.364;12.358;2023-02-28T16:50:00;9.70;;;5.10;;
15381;SDS011;7789;51.364;12.358;2023-02-28T16:55:05;8.20;;;5.10;;
15381;SDS011;7789;51.364;12.358;2023-02-28T17:00:12;8.57;;;5.37;;
15381;SDS011;7789;51.364;12.358;2023-02-28T17:05:16;8.27;;;5.60;;
15381;SDS011;7789;51.364;12.358;2023-02-28T17:10:21;11.60;;;6.00;;
15381;SDS011;7789;51.364;12.358;2023-02-28T17:15:27;10.43;;;6.17;;
15381;SDS011;7789;51.364;12.358;2023-02-28T17:20:31;12.80;;;7.17;;
15381;SDS011;7789;51.364;12.358;2023-02-28T17:25:36;10.47;;;6.90;;
15381;SDS011;7789;51.364;12.358;2023-02-28T17:30:41;9.20;;;6.17;;
15381;SDS011;7789;51.364;12.358;2023-02-28T17:35:48;10.57;;;6.13;;
15381;SDS011;7789;51.364;12.358;2023-02-28T17:40:52;8.87;;;6.43;;
15381;SDS011;7789;51.364;12.358;2023-02-28T17:46:00;9.87;;;6.23;;
15381;SDS011;7789;51.364;12.358;2023-02-28T17:51:03;10.23;;;6.20;;
15381;SDS011;7789;51.364;12.358;2023-02-28T17:56:09;9.27;;;6.83;;
15381;SDS011;7789;51.364;12.358;2023-02-28T18:01:16;13.40;;;8.00;;
15381;SDS011;7789;51.364;12.358;2023-02-28T18:06:21;9.60;;;7.03;;
15381;SDS011;7789;51.364;12.358;2023-02-28T18:11:26;12.37;;;7.13;;
15381;SDS011;7789;51.364;12.358;2023-02-28T18:16:49;11.50;;;7.43;;
15381;SDS011;7789;51.364;12.358;2023-02-28T18:21:54;12.00;;;7.13;;
15381;SDS011;7789;51.364;12.358;2023-02-28T18:27:00;12.90;;;8.27;;
15381;SDS011;7789;51.364;12.358;2023-02-28T18:32:05;12.73;;;8.60;;
15381;SDS011;7789;51.364;12.358;2023-02-28T18:37:09;14.13;;;8.87;;
15381;SDS011;7789;51.364;12.358;2023-02-28T18:42:28;13.10;;;9.53;;
15381;SDS011;7789;51.364;12.358;2023-02-28T18:47:41;14.10;;;9.30;;
15381;SDS011;7789;51.364;12.358;2023-02-28T18:52:47;13.10;;;9.50;;
15381;SDS011;7789;51.364;12.358;2023-02-28T18:58:06;14.73;;;9.43;;
15381;SDS011;7789;51.364;12.358;2023-02-28T19:03:11;14.80;;;9.33;;
15381;SDS011;7789;51.364;12.358;2023-02-28T19:08:15;13.20;;;9.17;;
15381;SDS011;7789;51.364;12.358;2023-02-28T19:13:18;13.87;;;9.00;;
15381;SDS011;7789;51.364;12.358;2023-02-28T19:18:23;13.87;;;9.80;;
15381;SDS011;7789;51.364;12.358;2023-02-28T19:23:33;13.37;;;8.87;;
15381;SDS011;7789;51.364;12.358;2023-02-28T19:28:37;11.67;;;8.23;;
15381;SDS011;7789;51.364;12.358;2023-02-28T19:33:42;14.27;;;9.53;;
15381;SDS011;7789;51.364;12.358;2023-02-28T19:38:45;11.60;;;8.13;;
15381;SDS011;7789;51.364;12.358;2023-02-28T19:43:49;15.43;;;9.60;;
15381;SDS011;7789;51.364;12.358;2023-02-28T19:48:56;15.13;;;8.40;;
15381;SDS011;7789;51.364;12.358;2023-02-28T19:53:59;14.77;;;8.70;;
15381;SDS011;7789;51.364;12.358;2023-02-28T19:59:05;12.33;;;9.27;;
15381;SDS011;7789;51.364;12.358;2023-02-28T20:04:28;12.40;;;7.87;;
15381;SDS011;7789;51.364;12.358;2023-02-28T20:09:32;13.60;;;8.40;;
15381;SDS011;7789;51.364;12.358;2023-02-28T20:14:35;14.60;;;8.63;;
15381;SDS011;7789;51.364;12.358;2023-02-28T20:19:40;13.63;;;8.47;;
15381;SDS011;7789;51.364;12.358;2023-02-28T20:24:43;13.93;;;8.70;;
15381;SDS011;7789;51.364;12.358;2023-02-28T20:29:47;15.40;;;9.90;;
15381;SDS011;7789;51.364;12.358;2023-02-28T20:34:52;11.67;;;8.10;;
15381;SDS011;7789;51.364;12.358;2023-02-28T20:39:55;18.37;;;9.93;;
15381;SDS011;7789;51.364;12.358;2023-02-28T20:44:59;17.73;;;9.50;;
15381;SDS011;7789;51.364;12.358;2023-02-28T20:50:04;13.90;;;9.77;;
15381;SDS011;7789;51.364;12.358;2023-02-28T20:55:08;15.63;;;10.63;;
15381;SDS011;7789;51.364;12.358;2023-02-28T21:00:13;16.60;;;11.00;;
15381;SDS011;7789;51.364;12.358;2023-02-28T21:05:22;17.67;;;10.67;;
15381;SDS011;7789;51.364;12.358;2023-02-28T21:10:30;14.67;;;10.67;;
15381;SDS011;7789;51.364;12.358;2023-02-28T21:15:35;16.27;;;11.23;;
15381;SDS011;7789;51.364;12.358;2023-02-28T21:20:40;17.17;;;11.53;;
15381;SDS011;7789;51.364;12.358;2023-02-28T21:25:44;17.23;;;11.93;;
15381;SDS011;7789;51.364;12.358;2023-02-28T21:30:47;16.47;;;12.10;;
15381;SDS011;7789;51.364;12.358;2023-02-28T21:35:51;20.97;;;13.07;;
15381;SDS011;7789;51.364;12.358;2023-02-28T21:41:03;14.93;;;11.43;;
15381;SDS011;7789;51.364;12.358;2023-02-28T21:46:07;19.23;;;12.77;;
15381;SDS011;7789;51.364;12.358;2023-02-28T21:51:15;15.40;;;10.50;;
15381;SDS011;7789;51.364;12.358;2023-02-28T21:56:20;14.83;;;9.97;;
15381;SDS011;7789;51.364;12.358;2023-02-28T22:01:25;16.53;;;10.37;;
15381;SDS011;7789;51.364;12.358;2023-02-28T22:06:33;13.63;;;10.17;;
15381;SDS011;7789;51.364;12.358;2023-02-28T22:11:38;16.70;;;10.00;;
15381;SDS011;7789;51.364;12.358;2023-02-28T22:16:41;14.27;;;9.60;;
15381;SDS011;7789;51.364;12.358;2023-02-28T22:21:56;13.70;;;9.10;;
15381;SDS011;7789;51.364;12.358;2023-02-28T22:26:59;15.63;;;9.20;;
15381;SDS011;7789;51.364;12.358;2023-02-28T22:32:03;13.50;;;8.70;;
15381;SDS011;7789;51.364;12.358;2023-02-28T22:37:11;14.43;;;8.77;;
15381;SDS011;7789;51.364;12.358;2023-02-28T22:42:14;13.40;;;8.30;;
15381;SDS011;7789;51.364;12.358;2023-02-28T22:47:17;11.53;;;8.10;;
15381;SDS011;7789;51.364;12.358;2023-02-28T22:52:23;14.90;;;8.40;;
15381;SDS011;7789;51.364;12.358;2023-02-28T22:57:27;15.03;;;8.43;;
15381;SDS011;7789;51.364;12.358;2023-02-28T23:02:30;12.60;;;8.30;;
15381;SDS011;7789;51.364;12.358;2023-02-28T23:07:35;14.23;;;8.47;;
15381;SDS011;7789;51.364;12.358;2023-02-28T23:12:38;16.47;;;8.83;;
15381;SDS011;7789;51.364;12.358;2023-02-28T23:17:54;15.03;;;8.60;;
15381;SDS011;7789;51.364;12.358;2023-02-28T23:22:58;12.53;;;8.17;;
15381;SDS011;7789;51.364;12.358;2023-02-28T23:28:02;14.00;;;9.00;;
15381;SDS011;7789;51.364;12.358;2023-02-28T23:33:05;14.13;;;8.67;;
15381;SDS011;7789;51.364;12.358;2023-02-28T23:38:10;16.70;;;8.93;;
15381;SDS011;7789;51.364;12.358;2023-02-28T23:43:13;14.70;;;8.73;;
15381;SDS011;7789;51.364;12.358;2023-02-28T23:48:17;13.97;;;8.30;;
15381;SDS011;7789;51.364;12.358;2023-02-28T23:53:21;13.17;;;7.80;;
15381;SDS011;7789;51.364;12.358;2023-02-28T23:58:24;13.40;;;8.43;;
